Time;durP1;ratioP1;P1;durP2;ratioP2;P2;SDS_P1;SDS_P2;PMS_P1;PMS_P2;Temp;Humidity;BMP_temperature;BMP_pressure;BME280_temperature;BME280_humidity;BME280_pressure;Samples;Min_cycle;Max_cycle;Signal;HPM_P1;HPM_P2
2022/10/20 00:00:25;;;;;;;2.53;1.38;;;16.90;86.50;;;;;;4994155;28;20518;-81
2022/10/20 00:02:51;;;;;;;2.38;1.40;;;16.90;86.60;;;;;;4994617;28;21212;-79
2022/10/20 00:05:16;;;;;;;2.53;1.45;;;16.90;86.70;;;;;;4992093;28;20050;-78
2022/10/20 00:07:42;;;;;;;2.95;1.33;;;16.90;87.20;;;;;;4968221;28;20666;-79
2022/10/20 00:10:08;;;;;;;1.77;1.20;;;16.80;86.70;;;;;;4986122;28;20053;-79
2022/10/20 00:12:33;;;;;;;2.78;1.58;;;16.90;86.70;;;;;;4973796;28;20030;-79
2022/10/20 00:14:59;;;;;;;2.00;1.20;;;16.80;86.70;;;;;;4998587;28;20026;-79
2022/10/20 00:17:24;;;;;;;2.00;1.23;;;16.80;86.80;;;;;;4980842;28;20034;-79
2022/10/20 00:19:50;;;;;;;2.40;1.52;;;16.80;86.80;;;;;;4998425;28;20023;-79
2022/10/20 00:22:16;;;;;;;2.78;1.50;;;16.80;86.80;;;;;;4980454;28;20094;-78
2022/10/20 00:24:41;;;;;;;2.15;1.40;;;16.80;86.80;;;;;;4998354;28;20034;-82
2022/10/20 00:27:07;;;;;;;2.50;1.50;;;16.80;86.80;;;;;;4997463;28;20038;-79
2022/10/20 00:29:33;;;;;;;3.42;1.50;;;16.80;86.80;;;;;;4980147;28;20118;-79
2022/10/20 00:31:58;;;;;;;2.70;1.52;;;16.80;86.80;;;;;;4970240;28;20055;-79
2022/10/20 00:34:24;;;;;;;2.47;1.70;;;16.80;86.80;;;;;;4979432;28;20027;-79
2022/10/20 00:36:49;;;;;;;2.58;1.60;;;16.80;86.90;;;;;;4996164;28;20026;-79
2022/10/20 00:39:15;;;;;;;3.72;1.80;;;16.80;86.90;;;;;;4977783;28;20852;-80
2022/10/20 00:41:40;;;;;;;2.05;1.40;;;16.80;86.80;;;;;;4995583;28;20061;-79
2022/10/20 00:44:44;;;;;;;1.98;1.40;;;16.80;86.70;;;;;;4995512;28;20030;-78
2022/10/20 00:47:15;;;;;;;2.47;1.27;;;16.90;86.70;;;;;;4994336;28;20078;-79
2022/10/20 00:49:41;;;;;;;2.05;1.40;;;16.90;86.60;;;;;;4986461;28;20030;-79
2022/10/20 00:52:07;;;;;;;2.22;1.33;;;16.90;86.40;;;;;;4977105;28;20087;-79
2022/10/20 00:54:33;;;;;;;2.35;1.55;;;16.90;86.30;;;;;;4977192;28;20396;-79
2022/10/20 00:56:59;;;;;;;2.20;1.50;;;16.90;86.40;;;;;;4994762;28;20026;-78
2022/10/20 00:59:30;;;;;;;3.08;1.60;;;16.90;86.40;;;;;;4977575;28;20077;-77
2022/10/20 01:01:58;;;;;;;3.40;1.40;;;16.80;86.40;;;;;;4994509;28;20053;-79
2022/10/20 01:04:26;;;;;;;2.45;1.55;;;16.80;86.50;;;;;;4967090;28;20044;-79
2022/10/20 01:06:52;;;;;;;2.47;1.60;;;16.90;86.60;;;;;;4974318;28;20027;-79
2022/10/20 01:09:18;;;;;;;2.33;1.60;;;16.80;86.50;;;;;;4990636;28;20030;-79
2022/10/20 01:11:50;;;;;;;2.67;1.60;;;16.80;86.50;;;;;;4992799;28;20026;-79
2022/10/20 01:14:39;;;;;;;2.67;1.60;;;16.80;86.60;;;;;;4999324;28;20464;-79
2022/10/20 01:17:28;;;;;;;2.17;1.43;;;16.80;86.60;;;;;;4980997;28;20050;-80
2022/10/20 01:20:13;;;;;;;2.33;1.55;;;16.80;86.70;;;;;;4980500;28;20022;-79
2022/10/20 01:23:16;;;;;;;1.92;1.50;;;16.80;86.70;;;;;;4997977;28;20053;-79
2022/10/20 01:26:12;;;;;;;2.45;1.63;;;16.80;86.70;;;;;;4955892;29;20054;-79
2022/10/20 01:28:58;;;;;;;2.50;1.77;;;16.80;86.70;;;;;;4997779;28;20030;-78
2022/10/20 01:31:51;;;;;;;2.30;1.50;;;16.80;86.70;;;;;;4979183;28;20097;-79
2022/10/20 01:34:25;;;;;;;2.55;1.70;;;16.80;86.80;;;;;;4979686;28;20042;-79
2022/10/20 01:37:00;;;;;;;3.05;1.80;;;16.80;86.70;;;;;;4996726;28;20023;-79
2022/10/20 01:39:35;;;;;;;3.17;1.65;;;16.80;86.80;;;;;;4979640;28;20030;-79
2022/10/20 01:42:12;;;;;;;2.70;1.58;;;16.80;86.70;;;;;;4995005;28;20030;-78
2022/10/20 01:44:40;;;;;;;3.08;1.88;;;16.80;86.70;;;;;;4985075;28;20068;-79
2022/10/20 01:47:08;;;;;;;2.10;1.50;;;16.90;86.60;;;;;;4995106;28;20480;-79
2022/10/20 01:49:35;;;;;;;2.38;1.63;;;16.80;86.50;;;;;;4993243;28;20026;-78
2022/10/20 01:52:01;;;;;;;2.30;1.50;;;16.80;86.40;;;;;;4976853;28;20026;-78
2022/10/20 01:54:28;;;;;;;2.38;1.60;;;16.80;86.40;;;;;;4993779;28;20019;-81
2022/10/20 01:57:16;;;;;;;2.30;1.70;;;16.80;86.30;;;;;;4974210;28;20026;-79
2022/10/20 01:59:58;;;;;;;1.90;1.40;;;16.80;86.30;;;;;;4993218;28;20030;-80
2022/10/20 02:02:54;;;;;;;2.30;1.60;;;16.80;86.40;;;;;;4975913;28;20027;-78
2022/10/20 02:05:39;;;;;;;2.70;1.70;;;16.80;86.40;;;;;;4986084;28;20030;-79
2022/10/20 02:08:25;;;;;;;2.28;1.65;;;16.80;86.40;;;;;;4994443;28;20031;-79
2022/10/20 02:10:54;;;;;;;2.92;1.85;;;16.80;86.50;;;;;;4978868;28;20045;-78
2022/10/20 02:13:20;;;;;;;2.33;1.63;;;16.80;86.50;;;;;;4991709;28;20065;-78
2022/10/20 02:15:52;;;;;;;3.25;1.80;;;16.80;86.60;;;;;;4991698;28;20443;-78
2022/10/20 02:18:30;;;;;;;2.53;1.80;;;16.70;86.50;;;;;;4994139;28;20030;-79
2022/10/20 02:20:59;;;;;;;2.35;1.65;;;16.70;86.50;;;;;;4990447;28;20034;-78
2022/10/20 02:23:28;;;;;;;2.05;1.60;;;16.70;86.60;;;;;;4991966;28;20034;-79
2022/10/20 02:25:54;;;;;;;2.63;1.67;;;16.70;86.60;;;;;;4991724;28;20030;-78
2022/10/20 02:28:21;;;;;;;3.20;1.75;;;16.70;86.60;;;;;;4992703;28;20026;-78
2022/10/20 02:30:46;;;;;;;2.50;1.70;;;16.80;87.30;;;;;;4992042;28;20579;-79
2022/10/20 02:33:13;;;;;;;3.15;1.70;;;16.70;86.70;;;;;;4994307;28;20142;-78
2022/10/20 02:35:42;;;;;;;2.67;1.70;;;16.80;86.70;;;;;;4978723;28;20030;-78
2022/10/20 02:38:08;;;;;;;3.38;1.80;;;16.70;86.70;;;;;;4977927;28;20018;-79
2022/10/20 02:40:33;;;;;;;2.40;1.70;;;16.70;86.70;;;;;;4994654;28;20433;-78
2022/10/20 02:42:59;;;;;;;2.22;1.60;;;16.70;86.70;;;;;;4976083;28;20034;-79
2022/10/20 02:45:24;;;;;;;2.20;1.70;;;16.70;86.80;;;;;;4968905;28;20035;-78
2022/10/20 02:47:50;;;;;;;2.85;1.85;;;16.70;86.70;;;;;;4994031;28;20038;-78
2022/10/20 02:50:16;;;;;;;2.90;1.67;;;16.70;86.60;;;;;;4992880;28;20113;-79
2022/10/20 02:52:41;;;;;;;2.92;1.73;;;16.80;86.60;;;;;;4973502;28;20085;-78
2022/10/20 02:55:07;;;;;;;3.55;1.80;;;16.80;86.50;;;;;;4993198;28;20034;-79
2022/10/20 02:57:32;;;;;;;3.13;1.77;;;16.80;86.40;;;;;;4993326;28;20037;-79
2022/10/20 02:59:58;;;;;;;2.65;1.80;;;16.80;86.30;;;;;;4991349;28;20101;-79
2022/10/20 03:02:23;;;;;;;2.13;1.60;;;16.80;86.30;;;;;;4996207;28;20044;-79
2022/10/20 03:04:49;;;;;;;3.17;2.08;;;16.80;86.40;;;;;;4995560;28;20415;-79
2022/10/20 03:07:15;;;;;;;2.83;1.90;;;16.80;86.40;;;;;;4978007;28;20022;-79
2022/10/20 03:09:41;;;;;;;2.75;1.65;;;16.80;86.50;;;;;;4968871;28;20031;-79
2022/10/20 03:12:06;;;;;;;3.03;1.80;;;16.80;86.50;;;;;;4993773;28;20145;-78
2022/10/20 03:14:32;;;;;;;2.80;1.90;;;16.70;86.40;;;;;;4977233;28;20133;-78
2022/10/20 03:16:57;;;;;;;2.65;1.70;;;16.70;86.50;;;;;;4992838;28;20164;-79
2022/10/20 03:19:23;;;;;;;2.40;1.77;;;16.70;86.50;;;;;;4969238;28;20232;-78
2022/10/20 03:21:48;;;;;;;3.45;2.17;;;16.70;86.60;;;;;;4992132;28;20065;-81
2022/10/20 03:24:15;;;;;;;2.53;1.95;;;16.70;86.50;;;;;;4993897;28;20030;-79
2022/10/20 03:26:41;;;;;;;2.08;1.60;;;16.70;86.50;;;;;;4975118;28;20080;-79
2022/10/20 03:29:06;;;;;;;2.35;1.70;;;16.70;86.60;;;;;;4992524;28;20125;-79
2022/10/20 03:31:32;;;;;;;3.10;1.85;;;16.70;86.70;;;;;;4975586;28;20030;-78
2022/10/20 03:33:58;;;;;;;2.92;1.92;;;16.70;86.60;;;;;;4992048;28;20033;-79
2022/10/20 03:36:23;;;;;;;2.92;1.95;;;16.70;86.70;;;;;;4978852;28;20509;-79
2022/10/20 03:38:49;;;;;;;3.25;1.90;;;16.70;86.70;;;;;;4975808;28;20496;-79
2022/10/20 03:41:14;;;;;;;3.67;2.00;;;16.70;86.70;;;;;;4974948;28;20026;-79
2022/10/20 03:43:41;;;;;;;2.67;2.05;;;16.60;86.60;;;;;;4980065;28;20460;-79
2022/10/20 03:46:09;;;;;;;2.97;1.90;;;16.70;86.70;;;;;;4978872;28;20046;-78
2022/10/20 03:48:36;;;;;;;3.28;1.92;;;16.70;86.80;;;;;;4980593;28;20397;-81
2022/10/20 03:51:02;;;;;;;2.80;1.90;;;16.70;86.70;;;;;;4986237;28;20026;-79
2022/10/20 03:53:28;;;;;;;2.80;1.90;;;16.70;86.60;;;;;;4997968;28;20022;-79
2022/10/20 03:55:54;;;;;;;3.45;2.17;;;16.70;86.50;;;;;;4981465;28;20030;-80
2022/10/20 03:58:19;;;;;;;2.80;1.90;;;16.70;86.40;;;;;;4981407;28;20023;-78
2022/10/20 04:00:46;;;;;;;2.97;1.90;;;16.80;86.40;;;;;;4975511;28;20023;-78
2022/10/20 04:03:12;;;;;;;3.35;1.85;;;16.80;86.30;;;;;;4988962;28;20038;-78
2022/10/20 04:05:38;;;;;;;2.95;1.98;;;16.80;86.30;;;;;;4993634;28;20807;-79
2022/10/20 04:08:04;;;;;;;2.78;2.00;;;16.70;86.20;;;;;;4963785;28;20516;-78
2022/10/20 04:10:30;;;;;;;3.22;1.92;;;16.70;86.30;;;;;;4989173;28;20069;-79
2022/10/20 04:13:00;;;;;;;2.88;1.98;;;16.70;86.30;;;;;;4976557;28;20023;-78
2022/10/20 04:15:25;;;;;;;3.95;2.30;;;16.70;86.30;;;;;;4973227;28;20064;-78
2022/10/20 04:17:51;;;;;;;2.72;1.90;;;16.70;86.40;;;;;;4992413;28;21400;-79
2022/10/20 04:20:16;;;;;;;3.13;2.10;;;16.70;86.40;;;;;;4976264;28;20782;-79
2022/10/20 04:22:42;;;;;;;3.45;2.00;;;16.70;86.40;;;;;;4974233;28;20761;-79
2022/10/20 04:25:08;;;;;;;2.78;1.85;;;16.70;86.50;;;;;;4987768;28;20034;-78
2022/10/20 04:27:33;;;;;;;3.50;1.90;;;16.70;86.40;;;;;;4991459;28;20030;-79
2022/10/20 04:29:59;;;;;;;3.05;2.00;;;16.70;86.60;;;;;;5005187;28;20025;-84
2022/10/20 04:32:25;;;;;;;3.50;2.20;;;16.60;86.50;;;;;;5003295;28;20034;-80
2022/10/20 04:34:51;;;;;;;2.95;2.20;;;16.60;86.40;;;;;;4975784;28;20037;-81
2022/10/20 04:37:16;;;;;;;3.03;1.90;;;16.70;86.50;;;;;;4996979;28;20018;-80
2022/10/20 04:39:42;;;;;;;3.05;2.10;;;16.60;86.50;;;;;;5006918;28;20051;-81
2022/10/20 04:42:07;;;;;;;3.05;2.00;;;16.60;86.50;;;;;;4981766;28;20041;-80
2022/10/20 04:44:33;;;;;;;2.92;2.05;;;16.60;86.80;;;;;;4979220;28;20038;-80
2022/10/20 04:46:58;;;;;;;3.25;2.15;;;16.60;86.60;;;;;;4993790;28;20105;-80
2022/10/20 04:49:24;;;;;;;3.55;2.28;;;16.60;86.50;;;;;;4975296;28;20086;-81
2022/10/20 04:51:50;;;;;;;3.28;2.10;;;16.60;87.10;;;;;;4989355;28;20080;-79
2022/10/20 04:54:15;;;;;;;3.10;2.00;;;16.60;86.60;;;;;;4977192;28;20104;-85
2022/10/20 04:56:41;;;;;;;4.25;2.38;;;16.60;86.50;;;;;;4995019;28;20030;-81
2022/10/20 04:59:06;;;;;;;2.63;1.90;;;16.60;86.40;;;;;;4996475;28;20085;-82
2022/10/20 05:01:32;;;;;;;2.53;1.88;;;16.70;86.30;;;;;;4990801;28;20042;-82
2022/10/20 05:03:57;;;;;;;3.03;2.03;;;16.70;86.30;;;;;;4974742;28;20035;-82
2022/10/20 05:06:31;;;;;;;3.90;2.22;;;16.70;86.20;;;;;;4974343;28;20109;-82
2022/10/20 05:08:59;;;;;;;3.40;2.13;;;16.70;86.00;;;;;;4966011;28;20027;-81
2022/10/20 05:11:27;;;;;;;3.55;2.15;;;16.70;86.00;;;;;;4972176;28;20671;-84
2022/10/20 05:13:53;;;;;;;2.72;1.98;;;16.70;86.00;;;;;;4994002;28;20062;-82
2022/10/20 05:16:19;;;;;;;2.85;1.90;;;16.70;86.10;;;;;;4994571;28;20088;-83
2022/10/20 05:18:45;;;;;;;4.07;2.00;;;16.70;86.10;;;;;;4994078;28;20027;-82
2022/10/20 05:21:13;;;;;;;2.95;2.20;;;16.60;86.30;;;;;;4975848;28;20395;-82
2022/10/20 05:23:39;;;;;;;2.83;2.05;;;16.70;86.20;;;;;;4975443;28;20109;-83
2022/10/20 05:26:08;;;;;;;3.00;2.10;;;16.60;86.70;;;;;;4975698;28;20061;-82
2022/10/20 05:28:34;;;;;;;3.83;2.20;;;16.60;86.10;;;;;;4992942;28;20146;-82
2022/10/20 05:31:04;;;;;;;3.55;2.17;;;16.60;86.20;;;;;;4975284;28;20137;-82
2022/10/20 05:33:30;;;;;;;2.80;2.10;;;16.60;86.20;;;;;;4975296;28;20444;-82
2022/10/20 05:35:56;;;;;;;2.75;1.75;;;16.60;86.10;;;;;;4975079;28;20476;-82
2022/10/20 05:38:22;;;;;;;3.40;2.20;;;16.60;86.20;;;;;;4972212;28;20380;-82
2022/10/20 05:40:47;;;;;;;3.25;2.20;;;16.60;86.20;;;;;;4991994;28;20030;-82
2022/10/20 05:43:13;;;;;;;2.78;2.05;;;16.60;86.20;;;;;;4974076;28;20392;-81
2022/10/20 05:45:39;;;;;;;3.28;2.15;;;16.60;86.30;;;;;;4972448;28;20061;-81
2022/10/20 05:48:05;;;;;;;3.63;2.20;;;16.60;86.30;;;;;;4974059;28;20026;-82
2022/10/20 05:50:31;;;;;;;3.75;2.33;;;16.60;86.30;;;;;;4990553;28;20037;-81
2022/10/20 05:52:57;;;;;;;2.50;1.90;;;16.60;86.20;;;;;;4972449;28;20022;-84
2022/10/20 05:55:23;;;;;;;3.40;2.10;;;16.60;86.40;;;;;;4972402;28;20027;-81
2022/10/20 05:57:49;;;;;;;3.72;2.13;;;16.60;86.50;;;;;;4973094;28;20037;-82
2022/10/20 06:00:17;;;;;;;2.97;2.10;;;16.60;86.30;;;;;;4973537;28;20022;-82
2022/10/20 06:02:43;;;;;;;3.17;2.10;;;16.50;86.20;;;;;;4971922;28;20037;-81
2022/10/20 06:05:08;;;;;;;3.70;2.20;;;16.50;86.60;;;;;;4973426;28;20030;-83
2022/10/20 06:07:34;;;;;;;3.60;2.00;;;16.60;86.10;;;;;;4972665;28;20061;-82
2022/10/20 06:10:00;;;;;;;3.33;2.10;;;16.70;85.90;;;;;;4987266;28;20022;-80
2022/10/20 06:12:25;;;;;;;3.10;2.00;;;16.60;85.60;;;;;;4985672;28;20026;-82
2022/10/20 06:14:51;;;;;;;3.85;2.33;;;16.70;85.70;;;;;;4973376;28;20077;-82
2022/10/20 06:17:16;;;;;;;3.88;2.17;;;16.70;85.70;;;;;;4990630;28;20030;-81
2022/10/20 06:19:42;;;;;;;3.13;2.20;;;16.70;85.80;;;;;;4989521;28;20098;-82
2022/10/20 06:22:07;;;;;;;3.55;2.08;;;16.60;85.90;;;;;;4989555;28;20030;-81
2022/10/20 06:24:33;;;;;;;3.20;2.20;;;16.60;85.90;;;;;;4989207;28;20374;-82
2022/10/20 06:26:58;;;;;;;3.25;2.20;;;16.60;85.90;;;;;;4996446;28;20034;-82
2022/10/20 06:29:24;;;;;;;2.72;2.00;;;16.60;85.90;;;;;;4997004;28;20030;-83
2022/10/20 06:31:50;;;;;;;2.95;2.22;;;16.60;85.90;;;;;;4977681;28;20037;-83
2022/10/20 06:34:18;;;;;;;3.72;2.22;;;16.60;86.00;;;;;;4977122;28;20033;-83
2022/10/20 06:36:45;;;;;;;2.90;2.03;;;16.60;85.90;;;;;;4977012;28;20022;-83
2022/10/20 06:39:14;;;;;;;2.90;2.00;;;16.60;85.90;;;;;;4993795;28;20033;-83
2022/10/20 06:41:40;;;;;;;3.33;2.40;;;16.60;85.90;;;;;;4976157;28;20022;-83
2022/10/20 06:44:06;;;;;;;3.00;2.00;;;16.60;85.90;;;;;;4975900;28;20033;-83
2022/10/20 06:46:34;;;;;;;3.50;2.00;;;16.60;85.90;;;;;;4975126;28;20085;-81
2022/10/20 06:49:05;;;;;;;3.65;2.25;;;16.60;85.90;;;;;;4991585;28;20109;-82
2022/10/20 06:51:31;;;;;;;3.22;2.40;;;16.60;85.90;;;;;;4971578;28;20238;-83
2022/10/20 06:53:58;;;;;;;3.33;2.20;;;16.50;85.80;;;;;;4974529;28;20126;-81
2022/10/20 06:56:27;;;;;;;4.00;2.03;;;16.60;85.80;;;;;;4992391;28;20465;-82
2022/10/20 06:58:54;;;;;;;3.28;2.20;;;16.60;85.80;;;;;;4992320;28;20110;-82
2022/10/20 07:01:24;;;;;;;3.45;2.15;;;16.60;85.70;;;;;;4991687;28;20030;-83
2022/10/20 07:03:52;;;;;;;3.15;1.98;;;16.60;85.60;;;;;;4991461;28;20038;-81
2022/10/20 07:06:21;;;;;;;2.95;2.08;;;16.70;85.50;;;;;;4973242;28;20096;-83
2022/10/20 07:08:47;;;;;;;3.30;2.20;;;16.70;85.30;;;;;;4976967;28;20030;-83
2022/10/20 07:11:15;;;;;;;3.05;2.08;;;16.70;85.20;;;;;;4978951;28;20037;-82
2022/10/20 07:13:41;;;;;;;3.05;2.13;;;16.80;85.10;;;;;;4978376;28;20033;-82
2022/10/20 07:16:10;;;;;;;3.22;2.22;;;16.80;85.00;;;;;;4995999;28;20077;-82
2022/10/20 07:18:36;;;;;;;3.35;2.10;;;16.80;84.90;;;;;;4980183;28;20022;-81
2022/10/20 07:21:04;;;;;;;2.85;2.10;;;16.80;84.90;;;;;;4997972;28;20494;-83
2022/10/20 07:23:31;;;;;;;3.13;2.22;;;16.80;84.90;;;;;;4998167;28;20026;-82
2022/10/20 07:26:09;;;;;;;2.72;2.00;;;16.80;84.80;;;;;;4980299;28;20473;-80
2022/10/20 07:28:35;;;;;;;3.83;2.22;;;16.80;84.80;;;;;;4980003;28;20037;-84
2022/10/20 07:31:06;;;;;;;3.30;2.10;;;16.80;84.60;;;;;;4997085;28;20030;-83
2022/10/20 07:33:32;;;;;;;3.70;2.22;;;16.80;84.50;;;;;;4996106;28;20033;-83
2022/10/20 07:35:58;;;;;;;3.55;2.05;;;16.90;84.50;;;;;;4997163;28;20416;-82
2022/10/20 07:38:24;;;;;;;2.90;1.98;;;16.80;84.60;;;;;;4995634;28;20028;-83
2022/10/20 07:40:49;;;;;;;3.47;2.13;;;16.80;84.60;;;;;;4994886;28;20771;-82
2022/10/20 07:43:15;;;;;;;2.85;2.20;;;16.90;84.50;;;;;;4996500;28;20038;-83
2022/10/20 07:45:40;;;;;;;3.13;2.13;;;16.80;84.60;;;;;;4996441;28;20037;-82
2022/10/20 07:48:08;;;;;;;2.88;2.00;;;16.80;84.70;;;;;;4996096;28;20759;-82
2022/10/20 07:50:37;;;;;;;2.90;2.00;;;16.80;84.80;;;;;;4994178;28;20034;-83
2022/10/20 07:53:05;;;;;;;3.17;2.15;;;16.80;84.80;;;;;;4995000;28;20036;-81
2022/10/20 07:55:31;;;;;;;3.05;2.10;;;16.70;84.90;;;;;;4977402;28;20476;-82
2022/10/20 07:57:56;;;;;;;3.03;2.15;;;16.80;85.00;;;;;;4978144;28;20022;-82
2022/10/20 08:00:22;;;;;;;3.70;2.17;;;16.70;85.00;;;;;;4977654;28;20053;-83
2022/10/20 08:02:47;;;;;;;4.30;2.20;;;16.70;85.10;;;;;;4977446;28;20435;-82
2022/10/20 08:05:13;;;;;;;3.47;2.42;;;16.80;85.10;;;;;;4993384;28;20030;-82
2022/10/20 08:07:38;;;;;;;4.53;2.35;;;16.80;85.10;;;;;;4993790;28;20527;-82
2022/10/20 08:10:05;;;;;;;3.17;2.03;;;16.70;85.00;;;;;;4998739;28;20038;-83
2022/10/20 08:12:31;;;;;;;3.40;2.17;;;16.70;84.90;;;;;;4978116;28;20114;-81
2022/10/20 08:14:56;;;;;;;3.50;2.25;;;16.80;84.90;;;;;;4975571;28;20114;-82
2022/10/20 08:17:22;;;;;;;3.30;2.10;;;16.80;84.80;;;;;;4980462;28;20109;-84
2022/10/20 08:19:48;;;;;;;3.08;2.10;;;16.80;84.80;;;;;;4997491;28;20030;-82
2022/10/20 08:22:14;;;;;;;3.90;2.15;;;16.80;84.70;;;;;;4980100;28;20030;-82
2022/10/20 08:24:40;;;;;;;2.88;2.03;;;16.80;84.70;;;;;;4979479;28;20106;-82
2022/10/20 08:27:06;;;;;;;3.28;2.13;;;16.70;84.80;;;;;;4995536;28;20062;-82
2022/10/20 08:29:32;;;;;;;2.85;2.10;;;16.80;85.00;;;;;;4978648;28;20030;-83
2022/10/20 08:31:57;;;;;;;2.83;2.13;;;16.80;85.00;;;;;;4978284;28;20104;-83
2022/10/20 08:34:23;;;;;;;2.60;1.98;;;16.70;85.00;;;;;;4996236;28;20484;-83
2022/10/20 08:36:48;;;;;;;3.50;2.30;;;16.70;85.00;;;;;;4978890;28;20485;-82
2022/10/20 08:39:14;;;;;;;2.47;2.00;;;16.70;85.10;;;;;;4995740;28;20026;-82
2022/10/20 08:41:44;;;;;;;3.17;2.10;;;16.80;85.10;;;;;;4977815;28;20030;-81
2022/10/20 08:44:25;;;;;;;3.00;1.90;;;16.70;85.10;;;;;;4977915;28;20562;-81
2022/10/20 08:46:51;;;;;;;3.25;2.10;;;16.80;85.20;;;;;;4995223;28;20026;-81
2022/10/20 08:49:30;;;;;;;3.00;2.13;;;16.80;85.20;;;;;;4995080;28;20037;-83
2022/10/20 08:51:57;;;;;;;3.42;2.20;;;16.80;85.10;;;;;;4994179;28;20042;-82
2022/10/20 08:54:23;;;;;;;3.67;2.38;;;16.80;85.10;;;;;;4994074;28;20025;-82
2022/10/20 08:56:49;;;;;;;2.90;2.10;;;16.80;84.90;;;;;;4993374;28;20026;-82
2022/10/20 08:59:31;;;;;;;3.90;2.20;;;16.80;84.70;;;;;;4996918;28;20078;-82
2022/10/20 09:01:57;;;;;;;2.75;2.00;;;16.90;84.80;;;;;;4979328;28;20392;-82
2022/10/20 09:04:40;;;;;;;3.45;2.17;;;16.90;84.70;;;;;;4995584;28;20030;-81
2022/10/20 09:07:30;;;;;;;2.70;1.95;;;16.90;84.70;;;;;;4976831;28;20527;-82
2022/10/20 09:10:21;;;;;;;2.73;2.03;;;16.90;84.80;;;;;;4993796;28;20018;-84
2022/10/20 09:12:48;;;;;;;2.80;2.10;;;16.90;84.50;;;;;;4975435;28;20286;-82
2022/10/20 09:15:15;;;;;;;3.58;2.30;;;16.90;84.40;;;;;;4994103;28;20027;-82
2022/10/20 09:17:44;;;;;;;2.92;2.00;;;16.90;84.10;;;;;;4993042;28;20027;-80
2022/10/20 09:20:20;;;;;;;2.72;1.90;;;17.00;84.20;;;;;;4989853;28;20023;-82
2022/10/20 09:22:46;;;;;;;3.63;2.30;;;17.00;84.00;;;;;;4990305;28;20026;-81
2022/10/20 09:25:16;;;;;;;3.33;2.20;;;17.10;83.90;;;;;;4992180;28;20031;-82
2022/10/20 09:27:43;;;;;;;3.15;2.15;;;17.00;83.80;;;;;;4993410;28;20500;-81
2022/10/20 09:30:36;;;;;;;4.35;2.35;;;17.10;83.90;;;;;;4993318;28;20110;-81
2022/10/20 09:33:27;;;;;;;3.40;2.22;;;17.10;83.90;;;;;;4974867;28;20038;-81
2022/10/20 09:35:55;;;;;;;3.30;2.05;;;17.00;83.90;;;;;;4992961;28;20022;-82
2022/10/20 09:38:25;;;;;;;3.58;2.03;;;17.00;84.00;;;;;;4975080;28;20758;-81
2022/10/20 09:41:24;;;;;;;2.92;2.20;;;17.10;84.00;;;;;;4990382;28;20034;-82
2022/10/20 09:43:59;;;;;;;2.95;2.10;;;17.00;84.00;;;;;;4970075;28;20042;-81
2022/10/20 09:46:28;;;;;;;2.67;1.90;;;17.10;84.10;;;;;;4974279;28;20038;-81
2022/10/20 09:48:54;;;;;;;3.78;2.42;;;17.10;84.00;;;;;;4991713;28;20084;-80
2022/10/20 09:51:27;;;;;;;2.90;2.22;;;17.20;84.10;;;;;;4974097;28;20030;-81
2022/10/20 09:53:59;;;;;;;2.55;1.88;;;17.10;83.90;;;;;;4973989;28;20030;-81
2022/10/20 09:56:39;;;;;;;3.42;2.20;;;17.20;83.90;;;;;;4991331;28;20547;-82
2022/10/20 09:59:16;;;;;;;3.08;2.08;;;17.20;83.70;;;;;;4991234;28;20108;-80
2022/10/20 10:02:02;;;;;;;2.80;2.05;;;17.20;83.70;;;;;;4989855;28;20502;-80
2022/10/20 10:04:37;;;;;;;2.95;1.95;;;17.20;83.80;;;;;;4989731;28;20221;-81
2022/10/20 10:07:04;;;;;;;2.67;1.95;;;17.20;83.70;;;;;;4990013;28;20026;-81
2022/10/20 10:09:36;;;;;;;3.50;2.17;;;17.20;83.60;;;;;;4972555;28;20511;-81
2022/10/20 10:12:03;;;;;;;3.03;2.10;;;17.20;83.60;;;;;;4972942;28;20041;-82
2022/10/20 10:14:32;;;;;;;3.28;2.17;;;17.20;83.60;;;;;;4972507;28;20022;-81
2022/10/20 10:16:58;;;;;;;2.50;1.88;;;17.30;83.50;;;;;;4973187;28;20420;-82
2022/10/20 10:19:27;;;;;;;3.42;2.10;;;17.30;83.30;;;;;;4972727;28;20077;-82
2022/10/20 10:21:56;;;;;;;3.83;2.13;;;17.40;83.10;;;;;;4971710;28;20118;-81
2022/10/20 10:24:38;;;;;;;3.15;2.10;;;17.40;82.90;;;;;;4990728;28;20096;-80
2022/10/20 10:27:04;;;;;;;2.85;2.00;;;17.50;82.80;;;;;;4972514;28;20034;-82
2022/10/20 10:29:35;;;;;;;3.50;2.20;;;17.50;82.80;;;;;;4972879;28;20034;-83
2022/10/20 10:32:16;;;;;;;3.00;2.10;;;17.50;82.70;;;;;;4988021;28;20117;-81
2022/10/20 10:34:46;;;;;;;3.78;2.10;;;17.50;82.90;;;;;;4990227;28;20035;-82
2022/10/20 10:37:14;;;;;;;3.10;2.20;;;17.50;82.80;;;;;;4972370;28;20026;-81
2022/10/20 10:39:40;;;;;;;3.00;2.10;;;17.50;82.90;;;;;;4988202;28;20034;-84
2022/10/20 10:42:18;;;;;;;3.40;2.10;;;17.40;82.90;;;;;;4992987;28;20038;-82
2022/10/20 10:45:10;;;;;;;3.08;2.10;;;17.40;83.20;;;;;;4995205;28;20076;-82
2022/10/20 10:47:42;;;;;;;2.83;2.10;;;17.40;83.30;;;;;;4996006;28;20026;-83
2022/10/20 10:50:33;;;;;;;4.00;2.00;;;17.30;83.50;;;;;;4977405;28;20072;-82
2022/10/20 10:53:30;;;;;;;3.28;2.10;;;17.30;83.70;;;;;;4975787;28;20048;-82
2022/10/20 10:56:26;;;;;;;3.08;2.00;;;17.20;83.80;;;;;;4981363;28;20379;-83
2022/10/20 10:59:00;;;;;;;3.53;2.20;;;17.20;84.00;;;;;;4998088;28;20058;-83
2022/10/20 11:01:58;;;;;;;3.45;2.33;;;17.20;84.10;;;;;;4997337;28;20027;-82
2022/10/20 11:04:41;;;;;;;3.25;2.22;;;17.20;84.10;;;;;;4994441;28;20034;-81
2022/10/20 11:07:52;;;;;;;3.45;2.20;;;17.20;84.10;;;;;;4979761;28;20029;-82
2022/10/20 11:10:39;;;;;;;4.03;2.35;;;17.20;84.20;;;;;;4985965;28;20058;-81
2022/10/20 11:13:23;;;;;;;3.03;2.13;;;17.20;84.10;;;;;;4979080;28;20037;-81
2022/10/20 11:16:08;;;;;;;2.78;2.10;;;17.20;84.20;;;;;;4995391;28;20030;-81
2022/10/20 11:19:08;;;;;;;3.03;2.20;;;17.20;84.10;;;;;;4979123;28;20054;-82
2022/10/20 11:21:52;;;;;;;3.33;2.10;;;17.20;83.60;;;;;;4995613;28;20031;-80
2022/10/20 11:24:41;;;;;;;3.72;2.30;;;17.20;83.60;;;;;;4975177;28;20068;-82
2022/10/20 11:27:11;;;;;;;3.37;2.30;;;17.20;83.60;;;;;;4977789;28;20046;-83
2022/10/20 11:29:48;;;;;;;3.55;2.00;;;17.20;83.70;;;;;;4981140;28;20333;-82
2022/10/20 11:32:44;;;;;;;3.50;2.20;;;17.20;83.70;;;;;;4981073;28;20033;-83
2022/10/20 11:35:17;;;;;;;2.50;1.98;;;17.20;83.90;;;;;;4976885;28;20157;-83
2022/10/20 11:38:07;;;;;;;4.05;2.42;;;17.20;84.00;;;;;;4979781;28;20061;-83
2022/10/20 11:40:48;;;;;;;3.13;2.17;;;17.20;84.00;;;;;;4979260;28;20057;-83
2022/10/20 11:43:48;;;;;;;3.13;2.20;;;17.20;84.00;;;;;;4997166;28;20117;-82
2022/10/20 11:46:23;;;;;;;3.17;2.03;;;17.10;84.00;;;;;;4991191;28;20125;-83
2022/10/20 11:48:51;;;;;;;3.78;2.20;;;17.10;84.10;;;;;;4981674;28;20026;-82
2022/10/20 11:51:28;;;;;;;2.75;2.03;;;17.10;84.20;;;;;;4998135;28;20511;-83
2022/10/20 11:54:30;;;;;;;3.53;2.22;;;17.10;84.30;;;;;;4980028;28;20030;-82
2022/10/20 11:57:09;;;;;;;3.60;2.40;;;17.10;84.30;;;;;;4998555;28;20396;-83
2022/10/20 12:00:11;;;;;;;3.30;2.35;;;17.10;84.30;;;;;;4979803;28;20125;-82
2022/10/20 12:03:10;;;;;;;3.75;2.40;;;17.10;84.20;;;;;;4979889;28;20080;-82
2022/10/20 12:05:47;;;;;;;4.13;2.47;;;17.10;84.40;;;;;;4995594;28;20399;-83
2022/10/20 12:08:33;;;;;;;3.22;2.40;;;17.10;84.30;;;;;;4997045;28;20054;-81
2022/10/20 12:11:26;;;;;;;3.33;2.28;;;17.10;84.20;;;;;;4996111;28;20400;-83
2022/10/20 12:14:24;;;;;;;3.08;2.20;;;17.00;84.10;;;;;;4975130;28;20629;-83
2022/10/20 12:16:53;;;;;;;3.83;2.55;;;17.00;84.40;;;;;;4994432;28;20093;-79
2022/10/20 12:19:21;;;;;;;3.65;2.03;;;17.00;84.20;;;;;;4974006;28;20519;-82
2022/10/20 12:22:00;;;;;;;3.42;2.40;;;17.00;84.00;;;;;;4976724;28;20030;-82
2022/10/20 12:24:47;;;;;;;3.17;2.10;;;17.00;84.20;;;;;;4995461;28;20507;-81
2022/10/20 12:27:22;;;;;;;3.17;2.30;;;17.00;83.90;;;;;;4975308;28;21087;-81
2022/10/20 12:29:53;;;;;;;3.58;2.33;;;17.10;83.90;;;;;;4991734;28;20446;-82
2022/10/20 12:32:33;;;;;;;3.92;2.22;;;17.10;83.50;;;;;;4976679;28;20035;-81
2022/10/20 12:35:22;;;;;;;3.33;2.25;;;17.00;83.80;;;;;;4977007;28;20034;-81
2022/10/20 12:38:03;;;;;;;4.03;2.53;;;17.00;83.90;;;;;;4994010;28;20069;-83
2022/10/20 12:40:54;;;;;;;3.75;2.28;;;17.00;84.00;;;;;;4976552;28;20484;-83
2022/10/20 12:43:36;;;;;;;3.92;2.33;;;17.00;84.00;;;;;;4973513;28;20512;-81
2022/10/20 12:46:08;;;;;;;3.47;2.30;;;17.00;84.30;;;;;;4976442;28;20080;-82
2022/10/20 12:48:41;;;;;;;3.42;2.38;;;17.00;84.40;;;;;;4976148;28;20026;-82
2022/10/20 12:51:16;;;;;;;3.80;2.28;;;17.00;84.10;;;;;;4993119;28;20045;-83
2022/10/20 12:53:42;;;;;;;3.45;2.45;;;16.90;84.10;;;;;;4975466;28;20484;-82
2022/10/20 12:56:10;;;;;;;3.35;2.30;;;16.90;84.10;;;;;;4973747;28;20150;-80
2022/10/20 12:58:38;;;;;;;3.53;2.20;;;16.90;84.50;;;;;;4973299;28;20498;-82
2022/10/20 13:01:11;;;;;;;3.72;2.42;;;16.90;84.50;;;;;;4974760;28;20404;-82
2022/10/20 13:03:46;;;;;;;3.55;2.30;;;16.90;84.40;;;;;;4975009;28;20038;-82
2022/10/20 13:06:25;;;;;;;3.70;2.35;;;16.90;84.50;;;;;;4993041;28;20034;-81
2022/10/20 13:09:03;;;;;;;3.90;2.30;;;16.90;84.90;;;;;;4974649;28;20117;-81